sensor_id;sensor_type;location;lat;lon;timestamp;P1;P2;P0
65012;PMS5003;51715;39.432;-77.518;2023-11-21T00:01:53;10;9;
65012;PMS5003;51715;39.432;-77.518;2023-11-21T00:04:22;6;6;
65012;PMS5003;51715;39.432;-77.518;2023-11-21T00:06:50;6;5;
65012;PMS5003;51715;39.432;-77.518;2023-11-21T00:09:19;6;6;
65012;PMS5003;51715;39.432;-77.518;2023-11-21T00:11:46;9;7;
65012;PMS5003;51715;39.432;-77.518;2023-11-21T00:14:15;11;9;
65012;PMS5003;51715;39.432;-77.518;2023-11-21T00:16:44;6;6;
65012;PMS5003;51715;39.432;-77.518;2023-11-21T00:19:12;9;6;
65012;PMS5003;51715;39.432;-77.518;2023-11-21T00:21:41;7;7;
65012;PMS5003;51715;39.432;-77.518;2023-11-21T00:24:10;8;8;
65012;PMS5003;51715;39.432;-77.518;2023-11-21T00:26:39;9;9;
65012;PMS5003;51715;39.432;-77.518;2023-11-21T00:29:07;9;8;
65012;PMS5003;51715;39.432;-77.518;2023-11-21T00:31:35;9;9;
65012;PMS5003;51715;39.432;-77.518;2023-11-21T00:34:03;8;6;
65012;PMS5003;51715;39.432;-77.518;2023-11-21T00:36:33;12;10;
65012;PMS5003;51715;39.432;-77.518;2023-11-21T00:39:00;8;7;
65012;PMS5003;51715;39.432;-77.518;2023-11-21T00:41:29;8;8;
65012;PMS5003;51715;39.432;-77.518;2023-11-21T00:43:57;8;8;
65012;PMS5003;51715;39.432;-77.518;2023-11-21T00:46:26;10;8;
65012;PMS5003;51715;39.432;-77.518;2023-11-21T00:48:54;13;13;
65012;PMS5003;51715;39.432;-77.518;2023-11-21T00:51:22;13;10;
65012;PMS5003;51715;39.432;-77.518;2023-11-21T00:53:51;11;10;
65012;PMS5003;51715;39.432;-77.518;2023-11-21T00:56:19;9;9;
65012;PMS5003;51715;39.432;-77.518;2023-11-21T00:58:49;11;9;
65012;PMS5003;51715;39.432;-77.518;2023-11-21T01:01:17;9;8;
65012;PMS5003;51715;39.432;-77.518;2023-11-21T01:03:46;13;13;
65012;PMS5003;51715;39.432;-77.518;2023-11-21T01:06:14;12;9;
65012;PMS5003;51715;39.432;-77.518;2023-11-21T01:08:42;10;10;
65012;PMS5003;51715;39.432;-77.518;2023-11-21T01:11:10;11;9;
65012;PMS5003;51715;39.432;-77.518;2023-11-21T01:13:39;10;10;
65012;PMS5003;51715;39.432;-77.518;2023-11-21T01:16:08;12;10;
65012;PMS5003;51715;39.432;-77.518;2023-11-21T01:18:36;11;10;
65012;PMS5003;51715;39.432;-77.518;2023-11-21T01:21:04;9;7;
65012;PMS5003;51715;39.432;-77.518;2023-11-21T01:23:33;13;9;
65012;PMS5003;51715;39.432;-77.518;2023-11-21T01:26:01;11;11;
65012;PMS5003;51715;39.432;-77.518;2023-11-21T01:28:29;9;8;
65012;PMS5003;51715;39.432;-77.518;2023-11-21T01:30:58;10;9;
65012;PMS5003;51715;39.432;-77.518;2023-11-21T01:33:26;12;11;
65012;PMS5003;51715;39.432;-77.518;2023-11-21T01:35:54;8;8;
65012;PMS5003;51715;39.432;-77.518;2023-11-21T01:38:22;7;7;
65012;PMS5003;51715;39.432;-77.518;2023-11-21T01:40:51;12;10;
65012;PMS5003;51715;39.432;-77.518;2023-11-21T01:43:20;8;7;
65012;PMS5003;51715;39.432;-77.518;2023-11-21T01:45:49;9;8;
65012;PMS5003;51715;39.432;-77.518;2023-11-21T01:48:17;8;7;
65012;PMS5003;51715;39.432;-77.518;2023-11-21T01:50:45;10;8;
65012;PMS5003;51715;39.432;-77.518;2023-11-21T01:53:13;8;8;
65012;PMS5003;51715;39.432;-77.518;2023-11-21T01:55:41;11;11;
65012;PMS5003;51715;39.432;-77.518;2023-11-21T01:58:10;10;10;
65012;PMS5003;51715;39.432;-77.518;2023-11-21T02:00:39;14;9;
65012;PMS5003;51715;39.432;-77.518;2023-11-21T02:03:07;10;10;
65012;PMS5003;51715;39.432;-77.518;2023-11-21T02:05:35;7;7;
65012;PMS5003;51715;39.432;-77.518;2023-11-21T02:08:04;8;8;
65012;PMS5003;51715;39.432;-77.518;2023-11-21T02:10:32;9;9;
65012;PMS5003;51715;39.432;-77.518;2023-11-21T02:13:00;12;11;
65012;PMS5003;51715;39.432;-77.518;2023-11-21T02:15:29;11;10;
65012;PMS5003;51715;39.432;-77.518;2023-11-21T02:17:57;12;12;
65012;PMS5003;51715;39.432;-77.518;2023-11-21T02:20:26;10;9;
65012;PMS5003;51715;39.432;-77.518;2023-11-21T02:22:55;8;8;
65012;PMS5003;51715;39.432;-77.518;2023-11-21T02:25:25;9;9;
65012;PMS5003;51715;39.432;-77.518;2023-11-21T02:27:54;10;8;
65012;PMS5003;51715;39.432;-77.518;2023-11-21T02:30:22;10;8;
65012;PMS5003;51715;39.432;-77.518;2023-11-21T02:32:51;8;7;
65012;PMS5003;51715;39.432;-77.518;2023-11-21T02:35:21;9;9;
65012;PMS5003;51715;39.432;-77.518;2023-11-21T02:37:49;8;7;
65012;PMS5003;51715;39.432;-77.518;2023-11-21T02:40:18;12;12;
65012;PMS5003;51715;39.432;-77.518;2023-11-21T02:42:47;14;13;
65012;PMS5003;51715;39.432;-77.518;2023-11-21T02:45:15;12;12;
65012;PMS5003;51715;39.432;-77.518;2023-11-21T02:47:44;13;10;
65012;PMS5003;51715;39.432;-77.518;2023-11-21T02:50:13;12;12;
65012;PMS5003;51715;39.432;-77.518;2023-11-21T02:52:40;10;10;
65012;PMS5003;51715;39.432;-77.518;2023-11-21T02:55:10;13;13;
65012;PMS5003;51715;39.432;-77.518;2023-11-21T02:57:38;12;10;
65012;PMS5003;51715;39.432;-77.518;2023-11-21T03:00:09;7;7;
65012;PMS5003;51715;39.432;-77.518;2023-11-21T03:02:37;13;12;
65012;PMS5003;51715;39.432;-77.518;2023-11-21T03:05:06;10;9;
65012;PMS5003;51715;39.432;-77.518;2023-11-21T03:07:36;15;12;
65012;PMS5003;51715;39.432;-77.518;2023-11-21T03:10:06;10;10;
65012;PMS5003;51715;39.432;-77.518;2023-11-21T03:12:36;15;10;
65012;PMS5003;51715;39.432;-77.518;2023-11-21T03:15:04;10;9;
65012;PMS5003;51715;39.432;-77.518;2023-11-21T03:17:33;12;11;
65012;PMS5003;51715;39.432;-77.518;2023-11-21T03:20:02;9;8;
65012;PMS5003;51715;39.432;-77.518;2023-11-21T03:22:30;9;8;
65012;PMS5003;51715;39.432;-77.518;2023-11-21T03:25:00;11;10;
65012;PMS5003;51715;39.432;-77.518;2023-11-21T03:27:28;11;11;
65012;PMS5003;51715;39.432;-77.518;2023-11-21T03:29:56;13;13;
65012;PMS5003;51715;39.432;-77.518;2023-11-21T03:32:24;14;11;
65012;PMS5003;51715;39.432;-77.518;2023-11-21T03:34:54;10;10;
65012;PMS5003;51715;39.432;-77.518;2023-11-21T03:37:22;12;11;
65012;PMS5003;51715;39.432;-77.518;2023-11-21T03:39:51;11;9;
65012;PMS5003;51715;39.432;-77.518;2023-11-21T03:42:19;12;12;
65012;PMS5003;51715;39.432;-77.518;2023-11-21T03:44:47;14;13;
65012;PMS5003;51715;39.432;-77.518;2023-11-21T03:47:16;10;10;
65012;PMS5003;51715;39.432;-77.518;2023-11-21T03:49:44;10;10;
65012;PMS5003;51715;39.432;-77.518;2023-11-21T03:52:12;12;10;
65012;PMS5003;51715;39.432;-77.518;2023-11-21T03:54:40;10;10;
65012;PMS5003;51715;39.432;-77.518;2023-11-21T03:57:09;11;11;
65012;PMS5003;51715;39.432;-77.518;2023-11-21T03:59:39;11;10;
65012;PMS5003;51715;39.432;-77.518;2023-11-21T04:02:08;12;12;
65012;PMS5003;51715;39.432;-77.518;2023-11-21T04:04:36;9;9;
65012;PMS5003;51715;39.432;-77.518;2023-11-21T04:07:05;13;12;
65012;PMS5003;51715;39.432;-77.518;2023-11-21T04:09:33;9;8;
65012;PMS5003;51715;39.432;-77.518;2023-11-21T04:12:02;8;8;
65012;PMS5003;51715;39.432;-77.518;2023-11-21T04:14:31;10;10;
65012;PMS5003;51715;39.432;-77.518;2023-11-21T04:16:59;11;10;
65012;PMS5003;51715;39.432;-77.518;2023-11-21T04:19:28;8;8;
65012;PMS5003;51715;39.432;-77.518;2023-11-21T04:21:56;14;13;
65012;PMS5003;51715;39.432;-77.518;2023-11-21T04:24:25;9;9;
65012;PMS5003;51715;39.432;-77.518;2023-11-21T04:26:53;9;9;
65012;PMS5003;51715;39.432;-77.518;2023-11-21T04:29:21;10;10;
65012;PMS5003;51715;39.432;-77.518;2023-11-21T04:31:49;13;9;
65012;PMS5003;51715;39.432;-77.518;2023-11-21T04:34:17;9;9;
65012;PMS5003;51715;39.432;-77.518;2023-11-21T04:36:45;12;10;
65012;PMS5003;51715;39.432;-77.518;2023-11-21T04:39:14;14;14;
65012;PMS5003;51715;39.432;-77.518;2023-11-21T04:41:42;12;12;
65012;PMS5003;51715;39.432;-77.518;2023-11-21T04:44:10;13;11;
65012;PMS5003;51715;39.432;-77.518;2023-11-21T04:46:38;9;9;
65012;PMS5003;51715;39.432;-77.518;2023-11-21T04:49:07;15;12;
65012;PMS5003;51715;39.432;-77.518;2023-11-21T04:51:34;14;14;
65012;PMS5003;51715;39.432;-77.518;2023-11-21T04:54:03;10;10;
65012;PMS5003;51715;39.432;-77.518;2023-11-21T04:56:32;12;11;
65012;PMS5003;51715;39.432;-77.518;2023-11-21T04:58:59;8;8;
65012;PMS5003;51715;39.432;-77.518;2023-11-21T05:03:59;13;11;
65012;PMS5003;51715;39.432;-77.518;2023-11-21T05:06:28;9;9;
65012;PMS5003;51715;39.432;-77.518;2023-11-21T05:08:56;13;12;
65012;PMS5003;51715;39.432;-77.518;2023-11-21T05:11:25;12;10;
65012;PMS5003;51715;39.432;-77.518;2023-11-21T05:13:54;16;10;
65012;PMS5003;51715;39.432;-77.518;2023-11-21T05:16:22;11;10;
65012;PMS5003;51715;39.432;-77.518;2023-11-21T05:18:53;14;11;
65012;PMS5003;51715;39.432;-77.518;2023-11-21T05:21:21;6;6;
65012;PMS5003;51715;39.432;-77.518;2023-11-21T05:23:49;12;10;
65012;PMS5003;51715;39.432;-77.518;2023-11-21T05:26:17;8;8;
65012;PMS5003;51715;39.432;-77.518;2023-11-21T05:28:45;7;7;
65012;PMS5003;51715;39.432;-77.518;2023-11-21T05:31:13;11;10;
65012;PMS5003;51715;39.432;-77.518;2023-11-21T05:33:41;8;8;
65012;PMS5003;51715;39.432;-77.518;2023-11-21T05:36:09;11;9;
65012;PMS5003;51715;39.432;-77.518;2023-11-21T05:38:38;13;9;
65012;PMS5003;51715;39.432;-77.518;2023-11-21T05:41:06;11;11;
65012;PMS5003;51715;39.432;-77.518;2023-11-21T05:43:34;10;10;
65012;PMS5003;51715;39.432;-77.518;2023-11-21T05:46:02;9;9;
65012;PMS5003;51715;39.432;-77.518;2023-11-21T05:48:31;9;9;
65012;PMS5003;51715;39.432;-77.518;2023-11-21T05:50:59;13;9;
65012;PMS5003;51715;39.432;-77.518;2023-11-21T05:53:27;10;10;
65012;PMS5003;51715;39.432;-77.518;2023-11-21T05:55:56;8;8;
65012;PMS5003;51715;39.432;-77.518;2023-11-21T05:58:24;10;10;
65012;PMS5003;51715;39.432;-77.518;2023-11-21T06:00:52;10;9;
65012;PMS5003;51715;39.432;-77.518;2023-11-21T06:03:20;9;9;
65012;PMS5003;51715;39.432;-77.518;2023-11-21T06:05:48;8;8;
65012;PMS5003;51715;39.432;-77.518;2023-11-21T06:08:16;11;10;
65012;PMS5003;51715;39.432;-77.518;2023-11-21T06:10:45;15;14;
65012;PMS5003;51715;39.432;-77.518;2023-11-21T06:13:14;11;9;
65012;PMS5003;51715;39.432;-77.518;2023-11-21T06:15:41;9;9;
65012;PMS5003;51715;39.432;-77.518;2023-11-21T06:18:09;8;7;
65012;PMS5003;51715;39.432;-77.518;2023-11-21T06:20:37;10;10;
65012;PMS5003;51715;39.432;-77.518;2023-11-21T06:23:06;9;9;
65012;PMS5003;51715;39.432;-77.518;2023-11-21T06:25:34;10;10;
65012;PMS5003;51715;39.432;-77.518;2023-11-21T06:28:02;14;13;
65012;PMS5003;51715;39.432;-77.518;2023-11-21T06:30:30;9;8;
65012;PMS5003;51715;39.432;-77.518;2023-11-21T06:32:59;10;10;
65012;PMS5003;51715;39.432;-77.518;2023-11-21T06:35:28;8;8;
65012;PMS5003;51715;39.432;-77.518;2023-11-21T06:37:56;13;11;
65012;PMS5003;51715;39.432;-77.518;2023-11-21T06:40:24;13;13;
65012;PMS5003;51715;39.432;-77.518;2023-11-21T06:42:53;14;11;
65012;PMS5003;51715;39.432;-77.518;2023-11-21T06:45:21;11;10;
65012;PMS5003;51715;39.432;-77.518;2023-11-21T06:47:49;11;9;
65012;PMS5003;51715;39.432;-77.518;2023-11-21T06:50:17;10;10;
65012;PMS5003;51715;39.432;-77.518;2023-11-21T06:52:46;11;11;
65012;PMS5003;51715;39.432;-77.518;2023-11-21T06:55:14;9;9;
65012;PMS5003;51715;39.432;-77.518;2023-11-21T06:57:42;12;12;
65012;PMS5003;51715;39.432;-77.518;2023-11-21T07:00:10;9;9;
65012;PMS5003;51715;39.432;-77.518;2023-11-21T07:02:39;9;9;
65012;PMS5003;51715;39.432;-77.518;2023-11-21T07:05:07;12;10;
65012;PMS5003;51715;39.432;-77.518;2023-11-21T07:07:35;10;8;
65012;PMS5003;51715;39.432;-77.518;2023-11-21T07:10:03;14;14;
65012;PMS5003;51715;39.432;-77.518;2023-11-21T07:12:32;11;11;
65012;PMS5003;51715;39.432;-77.518;2023-11-21T07:15:00;11;11;
65012;PMS5003;51715;39.432;-77.518;2023-11-21T07:17:28;12;12;
65012;PMS5003;51715;39.432;-77.518;2023-11-21T07:19:56;8;8;
65012;PMS5003;51715;39.432;-77.518;2023-11-21T07:22:24;10;10;
65012;PMS5003;51715;39.432;-77.518;2023-11-21T07:24:52;11;10;
65012;PMS5003;51715;39.432;-77.518;2023-11-21T07:27:22;8;8;
65012;PMS5003;51715;39.432;-77.518;2023-11-21T07:29:50;9;9;
65012;PMS5003;51715;39.432;-77.518;2023-11-21T07:32:18;12;12;
65012;PMS5003;51715;39.432;-77.518;2023-11-21T07:34:46;9;9;
65012;PMS5003;51715;39.432;-77.518;2023-11-21T07:37:14;11;11;
65012;PMS5003;51715;39.432;-77.518;2023-11-21T07:39:43;11;9;
65012;PMS5003;51715;39.432;-77.518;2023-11-21T07:42:10;13;11;
65012;PMS5003;51715;39.432;-77.518;2023-11-21T07:44:39;12;10;
65012;PMS5003;51715;39.432;-77.518;2023-11-21T07:47:09;12;11;
65012;PMS5003;51715;39.432;-77.518;2023-11-21T07:49:36;13;10;
65012;PMS5003;51715;39.432;-77.518;2023-11-21T07:52:05;14;11;
65012;PMS5003;51715;39.432;-77.518;2023-11-21T07:54:33;11;11;
65012;PMS5003;51715;39.432;-77.518;2023-11-21T07:57:01;12;10;
65012;PMS5003;51715;39.432;-77.518;2023-11-21T07:59:29;12;11;
65012;PMS5003;51715;39.432;-77.518;2023-11-21T08:01:57;10;10;
65012;PMS5003;51715;39.432;-77.518;2023-11-21T08:04:25;14;13;
65012;PMS5003;51715;39.432;-77.518;2023-11-21T08:06:53;11;10;
65012;PMS5003;51715;39.432;-77.518;2023-11-21T08:09:21;13;12;
65012;PMS5003;51715;39.432;-77.518;2023-11-21T08:11:49;13;11;
65012;PMS5003;51715;39.432;-77.518;2023-11-21T08:14:17;11;9;
65012;PMS5003;51715;39.432;-77.518;2023-11-21T08:16:45;9;9;
65012;PMS5003;51715;39.432;-77.518;2023-11-21T08:19:13;12;11;
65012;PMS5003;51715;39.432;-77.518;2023-11-21T08:21:41;14;11;
65012;PMS5003;51715;39.432;-77.518;2023-11-21T08:24:10;14;14;
65012;PMS5003;51715;39.432;-77.518;2023-11-21T08:26:38;16;14;
65012;PMS5003;51715;39.432;-77.518;2023-11-21T08:29:07;11;9;
65012;PMS5003;51715;39.432;-77.518;2023-11-21T08:31:35;15;14;
65012;PMS5003;51715;39.432;-77.518;2023-11-21T08:34:03;11;11;
65012;PMS5003;51715;39.432;-77.518;2023-11-21T08:36:32;9;8;
65012;PMS5003;51715;39.432;-77.518;2023-11-21T08:38:59;9;9;
65012;PMS5003;51715;39.432;-77.518;2023-11-21T08:41:27;12;12;
65012;PMS5003;51715;39.432;-77.518;2023-11-21T08:43:56;17;13;
65012;PMS5003;51715;39.432;-77.518;2023-11-21T08:46:25;11;11;
65012;PMS5003;51715;39.432;-77.518;2023-11-21T08:48:53;14;12;
65012;PMS5003;51715;39.432;-77.518;2023-11-21T08:51:22;10;8;
65012;PMS5003;51715;39.432;-77.518;2023-11-21T08:53:50;9;9;
65012;PMS5003;51715;39.432;-77.518;2023-11-21T08:56:18;10;10;
65012;PMS5003;51715;39.432;-77.518;2023-11-21T08:58:46;11;9;
65012;PMS5003;51715;39.432;-77.518;2023-11-21T09:01:15;8;8;
65012;PMS5003;51715;39.432;-77.518;2023-11-21T09:03:42;13;9;
65012;PMS5003;51715;39.432;-77.518;2023-11-21T09:06:11;9;9;
65012;PMS5003;51715;39.432;-77.518;2023-11-21T09:08:39;9;9;
65012;PMS5003;51715;39.432;-77.518;2023-11-21T09:11:08;12;10;
65012;PMS5003;51715;39.432;-77.518;2023-11-21T09:13:36;10;8;
65012;PMS5003;51715;39.432;-77.518;2023-11-21T09:16:05;8;8;
65012;PMS5003;51715;39.432;-77.518;2023-11-21T09:18:33;11;9;
65012;PMS5003;51715;39.432;-77.518;2023-11-21T09:21:01;11;11;
65012;PMS5003;51715;39.432;-77.518;2023-11-21T09:23:29;13;13;
65012;PMS5003;51715;39.432;-77.518;2023-11-21T09:25:57;9;9;
65012;PMS5003;51715;39.432;-77.518;2023-11-21T09:28:26;7;7;
65012;PMS5003;51715;39.432;-77.518;2023-11-21T09:30:54;9;8;
65012;PMS5003;51715;39.432;-77.518;2023-11-21T09:33:22;12;10;
65012;PMS5003;51715;39.432;-77.518;2023-11-21T09:35:51;10;9;
65012;PMS5003;51715;39.432;-77.518;2023-11-21T09:38:18;9;9;
65012;PMS5003;51715;39.432;-77.518;2023-11-21T09:40:47;7;7;
65012;PMS5003;51715;39.432;-77.518;2023-11-21T09:43:16;8;6;
65012;PMS5003;51715;39.432;-77.518;2023-11-21T09:45:45;8;8;
65012;PMS5003;51715;39.432;-77.518;2023-11-21T09:48:18;6;6;
65012;PMS5003;51715;39.432;-77.518;2023-11-21T09:50:48;7;6;
65012;PMS5003;51715;39.432;-77.518;2023-11-21T09:53:20;9;8;
65012;PMS5003;51715;39.432;-77.518;2023-11-21T09:55:49;8;7;
65012;PMS5003;51715;39.432;-77.518;2023-11-21T09:58:19;10;9;
65012;PMS5003;51715;39.432;-77.518;2023-11-21T10:00:48;7;7;
65012;PMS5003;51715;39.432;-77.518;2023-11-21T10:03:20;6;6;
65012;PMS5003;51715;39.432;-77.518;2023-11-21T10:05:49;10;8;
65012;PMS5003;51715;39.432;-77.518;2023-11-21T10:08:21;11;9;
65012;PMS5003;51715;39.432;-77.518;2023-11-21T10:10:52;8;8;
65012;PMS5003;51715;39.432;-77.518;2023-11-21T10:13:21;11;8;
65012;PMS5003;51715;39.432;-77.518;2023-11-21T10:15:51;8;7;
65012;PMS5003;51715;39.432;-77.518;2023-11-21T10:18:19;10;10;
65012;PMS5003;51715;39.432;-77.518;2023-11-21T10:20:49;7;7;
65012;PMS5003;51715;39.432;-77.518;2023-11-21T10:23:18;9;9;
65012;PMS5003;51715;39.432;-77.518;2023-11-21T10:25:46;11;9;
65012;PMS5003;51715;39.432;-77.518;2023-11-21T10:28:15;9;7;
65012;PMS5003;51715;39.432;-77.518;2023-11-21T10:30:42;6;6;
65012;PMS5003;51715;39.432;-77.518;2023-11-21T10:33:11;6;6;
65012;PMS5003;51715;39.432;-77.518;2023-11-21T10:35:43;6;6;
65012;PMS5003;51715;39.432;-77.518;2023-11-21T10:38:11;7;7;
65012;PMS5003;51715;39.432;-77.518;2023-11-21T10:40:40;10;7;
65012;PMS5003;51715;39.432;-77.518;2023-11-21T10:43:09;6;6;
65012;PMS5003;51715;39.432;-77.518;2023-11-21T10:45:37;7;7;
65012;PMS5003;51715;39.432;-77.518;2023-11-21T10:48:06;9;6;
65012;PMS5003;51715;39.432;-77.518;2023-11-21T10:50:35;5;5;
65012;PMS5003;51715;39.432;-77.518;2023-11-21T10:53:04;8;6;
65012;PMS5003;51715;39.432;-77.518;2023-11-21T10:55:33;6;6;
65012;PMS5003;51715;39.432;-77.518;2023-11-21T10:58:03;4;4;
65012;PMS5003;51715;39.432;-77.518;2023-11-21T11:00:32;6;6;
65012;PMS5003;51715;39.432;-77.518;2023-11-21T11:03:01;5;5;
65012;PMS5003;51715;39.432;-77.518;2023-11-21T11:05:30;9;9;
65012;PMS5003;51715;39.432;-77.518;2023-11-21T11:08:00;5;5;
65012;PMS5003;51715;39.432;-77.518;2023-11-21T11:10:31;5;5;
65012;PMS5003;51715;39.432;-77.518;2023-11-21T11:12:59;8;8;
65012;PMS5003;51715;39.432;-77.518;2023-11-21T11:15:28;8;8;
65012;PMS5003;51715;39.432;-77.518;2023-11-21T11:17:56;7;5;
65012;PMS5003;51715;39.432;-77.518;2023-11-21T11:20:25;6;5;
65012;PMS5003;51715;39.432;-77.518;2023-11-21T11:23:04;5;4;
65012;PMS5003;51715;39.432;-77.518;2023-11-21T11:25:46;5;5;
65012;PMS5003;51715;39.432;-77.518;2023-11-21T11:28:27;5;5;
65012;PMS5003;51715;39.432;-77.518;2023-11-21T11:31:21;5;5;
65012;PMS5003;51715;39.432;-77.518;2023-11-21T11:33:59;6;6;
65012;PMS5003;51715;39.432;-77.518;2023-11-21T11:36:36;5;5;
65012;PMS5003;51715;39.432;-77.518;2023-11-21T11:39:26;6;5;
65012;PMS5003;51715;39.432;-77.518;2023-11-21T11:41:55;4;4;
65012;PMS5003;51715;39.432;-77.518;2023-11-21T11:44:56;10;8;
65012;PMS5003;51715;39.432;-77.518;2023-11-21T11:47:26;7;6;
65012;PMS5003;51715;39.432;-77.518;2023-11-21T11:49:56;6;4;
65012;PMS5003;51715;39.432;-77.518;2023-11-21T11:52:42;8;5;
65012;PMS5003;51715;39.432;-77.518;2023-11-21T11:55:13;4;4;
65012;PMS5003;51715;39.432;-77.518;2023-11-21T11:57:42;4;4;
65012;PMS5003;51715;39.432;-77.518;2023-11-21T12:00:13;4;4;
65012;PMS5003;51715;39.432;-77.518;2023-11-21T12:02:44;4;4;
65012;PMS5003;51715;39.432;-77.518;2023-11-21T12:05:14;6;6;
65012;PMS5003;51715;39.432;-77.518;2023-11-21T12:07:44;11;6;
65012;PMS5003;51715;39.432;-77.518;2023-11-21T12:10:15;3;3;
65012;PMS5003;51715;39.432;-77.518;2023-11-21T12:12:46;5;4;
65012;PMS5003;51715;39.432;-77.518;2023-11-21T12:15:14;7;6;
65012;PMS5003;51715;39.432;-77.518;2023-11-21T12:17:43;7;4;
65012;PMS5003;51715;39.432;-77.518;2023-11-21T12:20:12;6;6;
65012;PMS5003;51715;39.432;-77.518;2023-11-21T12:22:42;3;3;
65012;PMS5003;51715;39.432;-77.518;2023-11-21T12:25:11;5;5;
65012;PMS5003;51715;39.432;-77.518;2023-11-21T12:27:39;6;5;
65012;PMS5003;51715;39.432;-77.518;2023-11-21T12:30:08;9;6;
65012;PMS5003;51715;39.432;-77.518;2023-11-21T12:32:37;3;3;
65012;PMS5003;51715;39.432;-77.518;2023-11-21T12:35:06;6;5;
65012;PMS5003;51715;39.432;-77.518;2023-11-21T12:37:36;3;3;
65012;PMS5003;51715;39.432;-77.518;2023-11-21T12:40:05;7;7;
65012;PMS5003;51715;39.432;-77.518;2023-11-21T12:42:36;4;4;
65012;PMS5003;51715;39.432;-77.518;2023-11-21T12:45:07;5;5;
65012;PMS5003;51715;39.432;-77.518;2023-11-21T12:47:44;6;6;
65012;PMS5003;51715;39.432;-77.518;2023-11-21T12:50:14;4;4;
65012;PMS5003;51715;39.432;-77.518;2023-11-21T12:52:42;4;4;
65012;PMS5003;51715;39.432;-77.518;2023-11-21T12:55:13;6;6;
65012;PMS5003;51715;39.432;-77.518;2023-11-21T12:57:43;6;5;
65012;PMS5003;51715;39.432;-77.518;2023-11-21T13:00:12;8;5;
65012;PMS5003;51715;39.432;-77.518;2023-11-21T13:02:42;4;4;
65012;PMS5003;51715;39.432;-77.518;2023-11-21T13:05:10;4;4;
65012;PMS5003;51715;39.432;-77.518;2023-11-21T13:07:41;6;5;
65012;PMS5003;51715;39.432;-77.518;2023-11-21T13:10:09;7;5;
65012;PMS5003;51715;39.432;-77.518;2023-11-21T13:12:42;5;5;
65012;PMS5003;51715;39.432;-77.518;2023-11-21T13:15:13;5;5;
65012;PMS5003;51715;39.432;-77.518;2023-11-21T13:17:41;4;3;
65012;PMS5003;51715;39.432;-77.518;2023-11-21T13:20:09;4;4;
65012;PMS5003;51715;39.432;-77.518;2023-11-21T13:22:38;5;5;
65012;PMS5003;51715;39.432;-77.518;2023-11-21T13:25:06;3;3;
65012;PMS5003;51715;39.432;-77.518;2023-11-21T13:27:35;8;5;
65012;PMS5003;51715;39.432;-77.518;2023-11-21T13:30:03;5;4;
65012;PMS5003;51715;39.432;-77.518;2023-11-21T13:32:32;5;5;
65012;PMS5003;51715;39.432;-77.518;2023-11-21T13:35:00;3;3;
65012;PMS5003;51715;39.432;-77.518;2023-11-21T13:37:28;6;4;
65012;PMS5003;51715;39.432;-77.518;2023-11-21T13:39:55;3;3;
65012;PMS5003;51715;39.432;-77.518;2023-11-21T13:42:23;5;5;
65012;PMS5003;51715;39.432;-77.518;2023-11-21T13:44:56;3;3;
65012;PMS5003;51715;39.432;-77.518;2023-11-21T13:47:24;5;5;
65012;PMS5003;51715;39.432;-77.518;2023-11-21T13:49:52;7;5;
65012;PMS5003;51715;39.432;-77.518;2023-11-21T13:52:20;4;4;
65012;PMS5003;51715;39.432;-77.518;2023-11-21T13:54:48;9;8;
65012;PMS5003;51715;39.432;-77.518;2023-11-21T13:57:16;5;4;
65012;PMS5003;51715;39.432;-77.518;2023-11-21T13:59:44;9;5;
65012;PMS5003;51715;39.432;-77.518;2023-11-21T14:02:12;6;6;
65012;PMS5003;51715;39.432;-77.518;2023-11-21T14:04:41;8;6;
65012;PMS5003;51715;39.432;-77.518;2023-11-21T14:07:10;5;5;
65012;PMS5003;51715;39.432;-77.518;2023-11-21T14:09:39;7;5;
65012;PMS5003;51715;39.432;-77.518;2023-11-21T14:12:07;6;6;
65012;PMS5003;51715;39.432;-77.518;2023-11-21T14:14:35;5;4;
65012;PMS5003;51715;39.432;-77.518;2023-11-21T14:17:03;10;8;
65012;PMS5003;51715;39.432;-77.518;2023-11-21T14:19:31;5;5;
65012;PMS5003;51715;39.432;-77.518;2023-11-21T14:21:59;7;7;
65012;PMS5003;51715;39.432;-77.518;2023-11-21T14:24:28;5;5;
65012;PMS5003;51715;39.432;-77.518;2023-11-21T14:26:56;5;5;
65012;PMS5003;51715;39.432;-77.518;2023-11-21T14:29:24;4;4;
65012;PMS5003;51715;39.432;-77.518;2023-11-21T14:31:53;6;6;
65012;PMS5003;51715;39.432;-77.518;2023-11-21T14:34:21;7;7;
65012;PMS5003;51715;39.432;-77.518;2023-11-21T14:36:49;10;7;
65012;PMS5003;51715;39.432;-77.518;2023-11-21T14:39:18;7;7;
65012;PMS5003;51715;39.432;-77.518;2023-11-21T14:41:46;10;8;
65012;PMS5003;51715;39.432;-77.518;2023-11-21T14:44:14;11;9;
65012;PMS5003;51715;39.432;-77.518;2023-11-21T14:46:42;7;7;
65012;PMS5003;51715;39.432;-77.518;2023-11-21T14:49:10;11;9;
65012;PMS5003;51715;39.432;-77.518;2023-11-21T14:51:38;4;4;
65012;PMS5003;51715;39.432;-77.518;2023-11-21T14:54:06;6;6;
65012;PMS5003;51715;39.432;-77.518;2023-11-21T14:56:35;7;7;
65012;PMS5003;51715;39.432;-77.518;2023-11-21T14:59:04;8;7;
65012;PMS5003;51715;39.432;-77.518;2023-11-21T15:01:33;8;6;
65012;PMS5003;51715;39.432;-77.518;2023-11-21T15:04:01;12;8;
65012;PMS5003;51715;39.432;-77.518;2023-11-21T15:06:29;13;11;
65012;PMS5003;51715;39.432;-77.518;2023-11-21T15:08:58;11;9;
65012;PMS5003;51715;39.432;-77.518;2023-11-21T15:11:26;8;8;
65012;PMS5003;51715;39.432;-77.518;2023-11-21T15:13:54;8;7;
65012;PMS5003;51715;39.432;-77.518;2023-11-21T15:16:23;8;8;
65012;PMS5003;51715;39.432;-77.518;2023-11-21T15:18:51;5;5;
65012;PMS5003;51715;39.432;-77.518;2023-11-21T15:21:19;7;6;
65012;PMS5003;51715;39.432;-77.518;2023-11-21T15:23:47;7;7;
65012;PMS5003;51715;39.432;-77.518;2023-11-21T15:26:16;7;6;
65012;PMS5003;51715;39.432;-77.518;2023-11-21T15:28:44;10;9;
65012;PMS5003;51715;39.432;-77.518;2023-11-21T15:31:12;12;12;
65012;PMS5003;51715;39.432;-77.518;2023-11-21T15:33:41;6;6;
65012;PMS5003;51715;39.432;-77.518;2023-11-21T15:36:09;9;7;
65012;PMS5003;51715;39.432;-77.518;2023-11-21T15:38:37;9;9;
65012;PMS5003;51715;39.432;-77.518;2023-11-21T15:41:06;7;6;
65012;PMS5003;51715;39.432;-77.518;2023-11-21T15:43:34;12;10;
65012;PMS5003;51715;39.432;-77.518;2023-11-21T15:46:02;7;7;
65012;PMS5003;51715;39.432;-77.518;2023-11-21T15:48:30;11;8;
65012;PMS5003;51715;39.432;-77.518;2023-11-21T15:50:59;12;10;
65012;PMS5003;51715;39.432;-77.518;2023-11-21T15:53:27;6;6;
65012;PMS5003;51715;39.432;-77.518;2023-11-21T15:55:55;13;9;
65012;PMS5003;51715;39.432;-77.518;2023-11-21T15:58:23;12;12;
65012;PMS5003;51715;39.432;-77.518;2023-11-21T16:00:51;8;8;
65012;PMS5003;51715;39.432;-77.518;2023-11-21T16:03:19;10;10;
65012;PMS5003;51715;39.432;-77.518;2023-11-21T16:05:48;9;9;
65012;PMS5003;51715;39.432;-77.518;2023-11-21T16:08:16;12;11;
65012;PMS5003;51715;39.432;-77.518;2023-11-21T16:10:44;11;8;
65012;PMS5003;51715;39.432;-77.518;2023-11-21T16:13:13;8;8;
65012;PMS5003;51715;39.432;-77.518;2023-11-21T16:15:42;10;10;
65012;PMS5003;51715;39.432;-77.518;2023-11-21T16:18:10;10;9;